Terminal Aerodrome Forecast
Issued by NWS Jackson, MS

Home | Current Version | Previous Version | Text Only | Print | Product List | Glossary On
Versions: 1 2 3 4 5 6 7 8 9 10 11 12 13 14 15
000
FTUS44 KJAN 300539
TAFMEI
TAF
KMEI 300539Z 3006/0106 21005KT P6SM FEW060
     FM301100 20004KT 5SM BR FEW010 SCT030
     FM301430 25009KT P6SM VCTS SCT020 BKN040CB
     FM302100 25015G21KT P6SM TSRA OVC050CB
     FM302300 25007KT P6SM SCT060 BKN250=

USA.gov is the U.S. government's official web portal to all federal, state and local government web resources and services.